Time;durP1;ratioP1;P1;durP2;ratioP2;P2;SDS_P1;SDS_P2;PMS_P1;PMS_P2;Temp;Humidity;BMP_temperature;BMP_pressure;BME280_temperature;BME280_humidity;BME280_pressure;Samples;Min_cycle;Max_cycle;Signal;HPM_P1;HPM_P2
2021/03/12 00:00:15;;;;;;;1.88;0.32;;;;;;;;;;5014719;28;20084;-71
2021/03/12 00:02:42;;;;;;;1.35;0.50;;;;;;;;;;4994962;28;20077;-70
2021/03/12 00:05:09;;;;;;;0.93;0.50;;;;;;;;;;4994604;28;20082;-68
2021/03/12 00:07:35;;;;;;;2.08;0.47;;;;;;;;;;4994974;28;20103;-71
2021/03/12 00:10:07;;;;;;;3.10;0.57;;;;;;;;;;4994885;28;20524;-71
2021/03/12 00:12:33;;;;;;;1.02;0.47;;;;;;;;;;4980675;28;20113;-70
2021/03/12 00:14:59;;;;;;;1.90;0.50;;;;;;;;;;5014164;28;20115;-70
2021/03/12 00:17:25;;;;;;;1.70;0.60;;;;;;;;;;5013713;28;20050;-71
2021/03/12 00:19:51;;;;;;;0.73;0.50;;;;;;;;;;5014320;28;20112;-71
2021/03/12 00:22:17;;;;;;;0.73;0.40;;;;;;;;;;5014263;28;20104;-71
2021/03/12 00:24:44;;;;;;;2.67;0.40;;;;;;;;;;5014011;28;20081;-71
2021/03/12 00:27:10;;;;;;;1.30;0.50;;;;;;;;;;5013311;28;20050;-70
2021/03/12 00:29:36;;;;;;;0.82;0.40;;;;;;;;;;5014120;28;20046;-71
2021/03/12 00:32:02;;;;;;;2.95;0.68;;;;;;;;;;5014076;28;20468;-71
2021/03/12 00:34:28;;;;;;;3.33;0.57;;;;;;;;;;5013943;28;20050;-70
2021/03/12 00:36:54;;;;;;;3.55;0.60;;;;;;;;;;5013315;28;20058;-70
2021/03/12 00:39:20;;;;;;;2.70;0.80;;;;;;;;;;5013771;28;20137;-70
2021/03/12 00:42:02;;;;;;;6.57;1.33;;;;;;;;;;5014163;28;20060;-70
2021/03/12 00:44:32;;;;;;;1.77;0.45;;;;;;;;;;5014226;28;20140;-69
2021/03/12 00:46:58;;;;;;;4.63;0.45;;;;;;;;;;5013286;28;20057;-70
2021/03/12 00:49:24;;;;;;;3.50;0.80;;;;;;;;;;5013589;28;20057;-70
2021/03/12 00:51:50;;;;;;;1.85;0.50;;;;;;;;;;5012872;28;20104;-70
2021/03/12 00:54:16;;;;;;;1.50;0.40;;;;;;;;;;5013593;28;20054;-70
2021/03/12 00:56:43;;;;;;;3.78;0.65;;;;;;;;;;5013129;28;20046;-70
2021/03/12 00:59:09;;;;;;;5.00;1.02;;;;;;;;;;5013650;28;20462;-69
2021/03/12 01:01:35;;;;;;;3.45;0.70;;;;;;;;;;5013548;28;20073;-70
2021/03/12 01:04:01;;;;;;;2.53;0.60;;;;;;;;;;5013334;28;20357;-70
2021/03/12 01:06:27;;;;;;;3.92;0.52;;;;;;;;;;5012936;28;20049;-70
2021/03/12 01:08:53;;;;;;;7.38;0.82;;;;;;;;;;5013854;28;20862;-70
2021/03/12 01:11:19;;;;;;;3.90;1.02;;;;;;;;;;5013484;28;20050;-70
2021/03/12 01:13:45;;;;;;;2.17;0.68;;;;;;;;;;5013016;28;20468;-70
2021/03/12 01:16:12;;;;;;;2.42;0.65;;;;;;;;;;5012717;28;20054;-69
2021/03/12 01:18:38;;;;;;;1.98;0.60;;;;;;;;;;4995700;28;20042;-70
2021/03/12 01:21:04;;;;;;;1.88;0.50;;;;;;;;;;4996046;28;20050;-70
2021/03/12 01:23:30;;;;;;;5.65;0.65;;;;;;;;;;5013065;28;20054;-69
2021/03/12 01:25:56;;;;;;;4.70;0.70;;;;;;;;;;5012276;28;20050;-70
2021/03/12 01:28:22;;;;;;;2.17;0.75;;;;;;;;;;5013106;28;20119;-69
2021/03/12 01:30:49;;;;;;;3.13;1.25;;;;;;;;;;5012916;28;20085;-69
2021/03/12 01:33:16;;;;;;;1.58;0.65;;;;;;;;;;5012937;28;20053;-70
2021/03/12 01:35:42;;;;;;;2.10;0.80;;;;;;;;;;5012097;28;20504;-69
2021/03/12 01:38:08;;;;;;;2.55;0.70;;;;;;;;;;5012474;28;20485;-69
2021/03/12 01:40:38;;;;;;;2.92;0.90;;;;;;;;;;5012860;28;20080;-70
2021/03/12 01:43:04;;;;;;;1.95;0.57;;;;;;;;;;5012683;28;20058;-71
2021/03/12 01:45:40;;;;;;;5.00;0.80;;;;;;;;;;5012150;28;20582;-70
2021/03/12 01:48:10;;;;;;;2.05;0.52;;;;;;;;;;5012780;28;20077;-69
2021/03/12 01:50:37;;;;;;;1.98;0.60;;;;;;;;;;5011458;28;20132;-70
2021/03/12 01:53:08;;;;;;;3.65;0.70;;;;;;;;;;5012512;28;20108;-70
2021/03/12 01:55:34;;;;;;;4.22;0.73;;;;;;;;;;5011835;28;20061;-70
2021/03/12 01:58:01;;;;;;;6.95;1.10;;;;;;;;;;5012539;28;20460;-71
2021/03/12 02:00:27;;;;;;;4.22;1.10;;;;;;;;;;5012545;28;20077;-70
2021/03/12 02:02:55;;;;;;;1.58;0.57;;;;;;;;;;5012659;28;20057;-71
2021/03/12 02:05:21;;;;;;;3.65;0.80;;;;;;;;;;4994053;28;20049;-70
2021/03/12 02:07:47;;;;;;;5.80;0.90;;;;;;;;;;5012441;28;20085;-70
2021/03/12 02:10:16;;;;;;;7.03;1.10;;;;;;;;;;5015404;28;20073;-69
2021/03/12 02:12:46;;;;;;;4.88;0.75;;;;;;;;;;5011984;28;20092;-71
2021/03/12 02:15:16;;;;;;;4.55;0.80;;;;;;;;;;5011714;28;20500;-71
2021/03/12 02:18:03;;;;;;;4.10;0.65;;;;;;;;;;5010582;28;20050;-71
2021/03/12 02:20:33;;;;;;;4.97;0.60;;;;;;;;;;5011118;28;20050;-69
2021/03/12 02:23:14;;;;;;;3.30;0.57;;;;;;;;;;4994638;28;20560;-72
2021/03/12 02:25:44;;;;;;;3.42;0.75;;;;;;;;;;4994054;28;20046;-71
2021/03/12 02:28:10;;;;;;;2.08;0.70;;;;;;;;;;5011068;28;20081;-70
2021/03/12 02:30:36;;;;;;;2.22;0.80;;;;;;;;;;4936672;28;22088;-71
2021/03/12 02:33:03;;;;;;;4.20;0.88;;;;;;;;;;4994666;28;20057;-71
2021/03/12 02:35:29;;;;;;;4.15;0.90;;;;;;;;;;4993938;28;20057;-71
2021/03/12 02:37:55;;;;;;;4.95;1.52;;;;;;;;;;5010569;28;20460;-71
2021/03/12 02:40:21;;;;;;;3.28;0.55;;;;;;;;;;5002501;28;20104;-71
2021/03/12 02:42:47;;;;;;;2.83;0.50;;;;;;;;;;5010713;28;20049;-70
2021/03/12 02:45:17;;;;;;;3.72;0.80;;;;;;;;;;5002106;28;20265;-71
2021/03/12 02:47:43;;;;;;;5.05;0.80;;;;;;;;;;5010553;28;20104;-71
2021/03/12 02:50:10;;;;;;;2.20;0.70;;;;;;;;;;5002652;28;20128;-68
2021/03/12 02:52:36;;;;;;;3.30;0.70;;;;;;;;;;4977560;28;20096;-70
2021/03/12 02:55:04;;;;;;;4.32;0.93;;;;;;;;;;5009800;28;20081;-70
2021/03/12 02:57:30;;;;;;;3.55;1.65;;;;;;;;;;5010043;28;20061;-70
2021/03/12 02:59:57;;;;;;;4.15;1.65;;;;;;;;;;4978123;28;20093;-70
2021/03/12 03:02:25;;;;;;;5.05;1.83;;;;;;;;;;4992380;28;20050;-70
2021/03/12 03:04:53;;;;;;;1.70;0.60;;;;;;;;;;4990616;28;20101;-71
2021/03/12 03:07:19;;;;;;;1.15;0.70;;;;;;;;;;4990542;28;20050;-70
2021/03/12 03:09:45;;;;;;;3.65;0.60;;;;;;;;;;4990935;28;20050;-70
2021/03/12 03:12:15;;;;;;;4.20;0.80;;;;;;;;;;4992257;28;20104;-71
2021/03/12 03:14:41;;;;;;;3.58;1.00;;;;;;;;;;5019843;23;20050;-71
2021/03/12 03:17:08;;;;;;;1.77;0.52;;;;;;;;;;5035879;28;20544;-72
2021/03/12 03:19:36;;;;;;;4.07;1.67;;;;;;;;;;5037436;28;20055;-71
2021/03/12 03:22:03;;;;;;;6.47;1.15;;;;;;;;;;5053921;28;20048;-73
2021/03/12 03:24:29;;;;;;;2.65;0.65;;;;;;;;;;5053928;28;20107;-74
2021/03/12 03:26:55;;;;;;;1.30;0.60;;;;;;;;;;5054518;28;20108;-72
2021/03/12 03:29:21;;;;;;;4.35;0.93;;;;;;;;;;5055169;28;20095;-72
2021/03/12 03:31:48;;;;;;;2.05;0.60;;;;;;;;;;5053638;28;20089;-72
2021/03/12 03:34:14;;;;;;;2.67;0.65;;;;;;;;;;5053922;28;20048;-72
2021/03/12 03:36:42;;;;;;;2.83;0.93;;;;;;;;;;5052752;28;20095;-72
2021/03/12 03:39:08;;;;;;;3.35;0.57;;;;;;;;;;5054934;28;20138;-72
2021/03/12 03:41:41;;;;;;;3.25;0.50;;;;;;;;;;5037292;28;20048;-71
2021/03/12 03:44:19;;;;;;;2.15;0.55;;;;;;;;;;5053847;28;20084;-73
2021/03/12 03:46:45;;;;;;;4.20;0.70;;;;;;;;;;5035732;28;20095;-72
2021/03/12 03:49:14;;;;;;;3.03;0.65;;;;;;;;;;5053695;28;20065;-73
2021/03/12 03:51:41;;;;;;;10.25;0.80;;;;;;;;;;5053309;28;20122;-71
2021/03/12 03:54:07;;;;;;;3.78;0.40;;;;;;;;;;5036922;28;20492;-72
2021/03/12 03:56:35;;;;;;;5.47;1.48;;;;;;;;;;5053734;28;20068;-72
2021/03/12 03:59:01;;;;;;;2.33;0.50;;;;;;;;;;5036545;28;20049;-72
2021/03/12 04:01:27;;;;;;;3.45;0.70;;;;;;;;;;5036588;28;20045;-73
2021/03/12 04:03:53;;;;;;;1.50;0.80;;;;;;;;;;5054400;28;20053;-72
2021/03/12 04:06:19;;;;;;;4.68;0.55;;;;;;;;;;5035921;28;20053;-72
2021/03/12 04:08:45;;;;;;;2.13;0.45;;;;;;;;;;5036366;28;20142;-72
2021/03/12 04:11:11;;;;;;;1.20;0.55;;;;;;;;;;5036557;28;20474;-72
2021/03/12 04:13:37;;;;;;;2.75;1.25;;;;;;;;;;5036477;28;20182;-72
2021/03/12 04:16:04;;;;;;;2.72;0.75;;;;;;;;;;5042669;28;20049;-72
2021/03/12 04:18:30;;;;;;;4.15;0.60;;;;;;;;;;5051408;28;20049;-72
2021/03/12 04:20:57;;;;;;;2.70;0.60;;;;;;;;;;5052709;28;20056;-72
2021/03/12 04:23:23;;;;;;;3.42;0.80;;;;;;;;;;5052913;28;20045;-72
2021/03/12 04:25:49;;;;;;;2.05;0.63;;;;;;;;;;5050805;28;20496;-72
2021/03/12 04:28:15;;;;;;;5.32;0.57;;;;;;;;;;5053065;28;20095;-72
2021/03/12 04:30:41;;;;;;;4.43;0.80;;;;;;;;;;5036262;28;20396;-72
2021/03/12 04:33:08;;;;;;;3.45;0.60;;;;;;;;;;5045094;28;20103;-71
2021/03/12 04:35:35;;;;;;;3.95;1.30;;;;;;;;;;5031999;28;20049;-72
2021/03/12 04:38:02;;;;;;;6.55;0.73;;;;;;;;;;5032601;28;20045;-71
2021/03/12 04:40:28;;;;;;;4.35;0.70;;;;;;;;;;5032566;28;20053;-71
2021/03/12 04:42:54;;;;;;;3.70;0.90;;;;;;;;;;5038804;28;20102;-72
2021/03/12 04:45:20;;;;;;;4.35;0.98;;;;;;;;;;5034861;28;20056;-72
2021/03/12 04:47:47;;;;;;;7.05;1.10;;;;;;;;;;5052148;28;20095;-71
2021/03/12 04:50:13;;;;;;;3.88;0.80;;;;;;;;;;5035819;28;20051;-71
2021/03/12 04:52:39;;;;;;;4.22;0.90;;;;;;;;;;5052117;28;20049;-72
2021/03/12 04:55:08;;;;;;;6.07;0.90;;;;;;;;;;5051973;28;20056;-71
2021/03/12 04:57:37;;;;;;;5.85;0.60;;;;;;;;;;5051786;28;20053;-72
2021/03/12 05:00:08;;;;;;;3.00;0.50;;;;;;;;;;5051968;28;20630;-73
2021/03/12 05:02:35;;;;;;;2.28;0.80;;;;;;;;;;5036421;28;20458;-72
2021/03/12 05:05:04;;;;;;;3.42;0.70;;;;;;;;;;5051971;28;20102;-72
2021/03/12 05:07:31;;;;;;;5.07;0.75;;;;;;;;;;5052625;28;20704;-71
2021/03/12 05:09:57;;;;;;;2.97;0.63;;;;;;;;;;5051798;28;20157;-72
2021/03/12 05:12:23;;;;;;;3.50;0.80;;;;;;;;;;5053023;28;20085;-73
2021/03/12 05:14:49;;;;;;;3.42;0.80;;;;;;;;;;5052656;28;20053;-73
2021/03/12 05:17:16;;;;;;;5.90;1.13;;;;;;;;;;5052385;28;20124;-72
2021/03/12 05:19:42;;;;;;;4.60;0.95;;;;;;;;;;5052771;28;20060;-72
2021/03/12 05:22:08;;;;;;;6.93;1.00;;;;;;;;;;5052907;28;20053;-72
2021/03/12 05:24:34;;;;;;;2.38;0.70;;;;;;;;;;5035164;28;20450;-72
2021/03/12 05:27:01;;;;;;;5.28;0.98;;;;;;;;;;5050842;28;20060;-72
2021/03/12 05:29:27;;;;;;;4.45;1.15;;;;;;;;;;5051470;28;20091;-72
2021/03/12 05:31:53;;;;;;;1.90;0.80;;;;;;;;;;5052159;28;20466;-72
2021/03/12 05:34:19;;;;;;;4.15;1.08;;;;;;;;;;5052679;28;20053;-72
2021/03/12 05:36:45;;;;;;;2.00;0.63;;;;;;;;;;5051766;28;20045;-72
2021/03/12 05:39:11;;;;;;;2.40;0.55;;;;;;;;;;5052743;28;20056;-72
2021/03/12 05:41:38;;;;;;;3.30;0.80;;;;;;;;;;5051090;28;20049;-72
2021/03/12 05:44:05;;;;;;;3.55;0.60;;;;;;;;;;5051406;28;20549;-73
2021/03/12 05:46:33;;;;;;;7.28;1.35;;;;;;;;;;5050685;28;20132;-72
2021/03/12 05:49:00;;;;;;;2.83;0.70;;;;;;;;;;5051076;28;20427;-73
2021/03/12 05:51:26;;;;;;;4.55;0.80;;;;;;;;;;5034765;28;20048;-72
2021/03/12 05:53:52;;;;;;;3.72;0.70;;;;;;;;;;5052224;28;20049;-72
2021/03/12 05:56:19;;;;;;;6.85;1.63;;;;;;;;;;5050653;28;20466;-72
2021/03/12 05:58:45;;;;;;;2.03;1.00;;;;;;;;;;5034261;28;20488;-73
2021/03/12 06:01:11;;;;;;;5.28;0.88;;;;;;;;;;5039325;28;20049;-72
2021/03/12 06:03:37;;;;;;;5.20;1.13;;;;;;;;;;5032257;28;20126;-71
2021/03/12 06:06:03;;;;;;;4.43;1.00;;;;;;;;;;5031454;28;20114;-72
2021/03/12 06:08:32;;;;;;;4.50;0.80;;;;;;;;;;5047432;28;20474;-72
2021/03/12 06:10:59;;;;;;;3.33;0.57;;;;;;;;;;5032095;28;20460;-73
2021/03/12 06:13:25;;;;;;;6.65;0.93;;;;;;;;;;5032026;28;20046;-73
2021/03/12 06:16:21;;;;;;;6.63;1.02;;;;;;;;;;5044227;28;20060;-72
2021/03/12 06:19:17;;;;;;;5.10;0.90;;;;;;;;;;5031989;28;20046;-72
2021/03/12 06:21:45;;;;;;;3.35;0.80;;;;;;;;;;5045894;28;20051;-72
2021/03/12 06:24:28;;;;;;;4.10;1.50;;;;;;;;;;5051743;28;20052;-72
2021/03/12 06:26:55;;;;;;;7.45;2.78;;;;;;;;;;5049654;28;20053;-72
2021/03/12 06:29:37;;;;;;;9.57;2.97;;;;;;;;;;5050486;28;20094;-73
2021/03/12 06:32:05;;;;;;;10.45;2.28;;;;;;;;;;5034309;28;20517;-72
2021/03/12 06:34:31;;;;;;;7.85;1.00;;;;;;;;;;5034153;28;20060;-72
2021/03/12 06:36:58;;;;;;;2.78;0.50;;;;;;;;;;5050586;28;20515;-71
2021/03/12 06:39:32;;;;;;;2.38;0.70;;;;;;;;;;5030620;28;20102;-70
2021/03/12 06:41:58;;;;;;;3.53;0.65;;;;;;;;;;5032569;28;20045;-71
2021/03/12 06:44:32;;;;;;;4.70;0.85;;;;;;;;;;5029691;28;20091;-71
2021/03/12 06:46:59;;;;;;;5.68;0.80;;;;;;;;;;5027893;28;20100;-71
2021/03/12 06:49:26;;;;;;;5.90;1.85;;;;;;;;;;5029004;28;20524;-73
2021/03/12 06:52:04;;;;;;;4.80;0.75;;;;;;;;;;5028160;28;20053;-71
2021/03/12 06:54:35;;;;;;;5.10;1.23;;;;;;;;;;5028300;28;20081;-71
2021/03/12 06:57:18;;;;;;;3.63;1.67;;;;;;;;;;5027687;28;20053;-71
2021/03/12 06:59:44;;;;;;;2.60;0.60;;;;;;;;;;5039552;28;20083;-71
2021/03/12 07:02:10;;;;;;;2.92;0.90;;;;;;;;;;5031404;28;20080;-71
2021/03/12 07:04:38;;;;;;;3.90;0.75;;;;;;;;;;5047532;28;20053;-71
2021/03/12 07:07:04;;;;;;;5.22;0.65;;;;;;;;;;5047242;28;20586;-72
2021/03/12 07:09:30;;;;;;;2.58;0.85;;;;;;;;;;5048209;28;20549;-71
2021/03/12 07:11:57;;;;;;;3.95;1.00;;;;;;;;;;5047712;28;20102;-73
2021/03/12 07:14:23;;;;;;;2.35;0.80;;;;;;;;;;5049195;28;20045;-71
2021/03/12 07:17:00;;;;;;;4.00;0.63;;;;;;;;;;5048087;28;20056;-70
2021/03/12 07:19:27;;;;;;;5.53;0.77;;;;;;;;;;5048049;28;20041;-70
2021/03/12 07:21:57;;;;;;;5.78;0.80;;;;;;;;;;5047720;28;20397;-71
2021/03/12 07:24:24;;;;;;;2.92;1.15;;;;;;;;;;5049414;28;20045;-74
2021/03/12 07:26:55;;;;;;;2.72;0.63;;;;;;;;;;5004466;28;20530;-71
2021/03/12 07:29:23;;;;;;;7.43;2.08;;;;;;;;;;5027460;28;20096;-73
2021/03/12 07:31:51;;;;;;;4.55;1.60;;;;;;;;;;5026979;28;20053;-73
2021/03/12 07:34:30;;;;;;;4.43;1.25;;;;;;;;;;5025870;28;20053;-72
2021/03/12 07:36:58;;;;;;;4.88;0.80;;;;;;;;;;5043003;28;20080;-72
2021/03/12 07:39:26;;;;;;;9.52;1.55;;;;;;;;;;5028545;28;20060;-72
2021/03/12 07:41:52;;;;;;;6.30;0.88;;;;;;;;;;5028840;28;20054;-72
2021/03/12 07:44:38;;;;;;;4.65;0.80;;;;;;;;;;5041759;28;20057;-71
2021/03/12 07:47:24;;;;;;;5.88;1.40;;;;;;;;;;5041609;28;20149;-73
2021/03/12 07:49:50;;;;;;;4.07;0.87;;;;;;;;;;5043388;28;20072;-73
2021/03/12 07:52:17;;;;;;;5.03;0.90;;;;;;;;;;5043391;28;20281;-72
2021/03/12 07:54:46;;;;;;;5.63;1.52;;;;;;;;;;5027958;28;20053;-72
2021/03/12 07:57:17;;;;;;;5.80;1.15;;;;;;;;;;5027715;28;20061;-72
2021/03/12 07:59:46;;;;;;;3.70;0.85;;;;;;;;;;5027670;28;20154;-76
2021/03/12 08:02:14;;;;;;;4.78;0.90;;;;;;;;;;5032251;28;20089;-72
2021/03/12 08:04:46;;;;;;;8.23;1.10;;;;;;;;;;5046131;28;20509;-76
2021/03/12 08:07:19;;;;;;;4.35;1.08;;;;;;;;;;5030987;28;20542;-72
2021/03/12 08:09:45;;;;;;;12.30;1.65;;;;;;;;;;5040586;28;20045;-71
2021/03/12 08:12:32;;;;;;;4.47;1.10;;;;;;;;;;5040172;28;20052;-73
2021/03/12 08:15:17;;;;;;;8.07;1.27;;;;;;;;;;5037875;28;20057;-73
2021/03/12 08:18:08;;;;;;;2.78;0.93;;;;;;;;;;5042571;28;20053;-73
2021/03/12 08:20:44;;;;;;;6.47;0.98;;;;;;;;;;5041048;28;20431;-73
2021/03/12 08:23:13;;;;;;;0.95;0.60;;;;;;;;;;5024820;28;20045;-72
2021/03/12 08:25:39;;;;;;;9.50;1.90;;;;;;;;;;5039089;28;20439;-72
2021/03/12 08:28:06;;;;;;;5.25;1.23;;;;;;;;;;5040559;28;20064;-72
2021/03/12 08:30:35;;;;;;;5.18;0.95;;;;;;;;;;5043406;28;20140;-70
2021/03/12 08:33:03;;;;;;;3.50;1.33;;;;;;;;;;5044897;28;20053;-70
2021/03/12 08:35:39;;;;;;;6.70;2.17;;;;;;;;;;5041341;28;20480;-69
2021/03/12 08:38:11;;;;;;;2.63;0.90;;;;;;;;;;5039675;28;20069;-69
2021/03/12 08:40:42;;;;;;;3.03;1.17;;;;;;;;;;5039347;28;20506;-69
2021/03/12 08:43:08;;;;;;;3.50;0.90;;;;;;;;;;5044252;28;20044;-73
2021/03/12 08:45:54;;;;;;;6.30;0.68;;;;;;;;;;5041797;28;20057;-69
2021/03/12 08:48:21;;;;;;;2.97;0.70;;;;;;;;;;5039066;28;20520;-70
2021/03/12 08:50:58;;;;;;;5.28;1.10;;;;;;;;;;5043845;28;20073;-72
2021/03/12 08:53:26;;;;;;;10.70;1.90;;;;;;;;;;5042411;28;20057;-70
2021/03/12 08:55:54;;;;;;;4.85;1.70;;;;;;;;;;5040105;28;20048;-70
2021/03/12 08:58:25;;;;;;;4.47;1.10;;;;;;;;;;5044119;28;20076;-74
2021/03/12 09:00:54;;;;;;;7.85;1.35;;;;;;;;;;5030056;28;20050;-74
2021/03/12 09:03:27;;;;;;;7.03;1.42;;;;;;;;;;5044061;28;20475;-70
2021/03/12 09:06:03;;;;;;;;;;;;;;;;;;5037844;28;20051;-69
2021/03/12 09:08:31;;;;;;;6.60;1.33;;;;;;;;;;5043544;28;19929;-69
2021/03/12 09:10:57;;;;;;;4.93;0.93;;;;;;;;;;5046568;28;20053;-69
2021/03/12 09:13:28;;;;;;;3.83;0.65;;;;;;;;;;5035519;28;20084;-69
2021/03/12 09:15:55;;;;;;;3.15;0.75;;;;;;;;;;5044876;28;20107;-69
2021/03/12 09:18:37;;;;;;;3.15;0.93;;;;;;;;;;5039225;28;20053;-69
2021/03/12 09:21:09;;;;;;;2.65;0.77;;;;;;;;;;5040777;28;20483;-68
2021/03/12 09:23:48;;;;;;;3.78;1.23;;;;;;;;;;5041113;28;20053;-70
2021/03/12 09:26:17;;;;;;;3.67;0.90;;;;;;;;;;5046226;28;20110;-68
2021/03/12 09:28:45;;;;;;;3.83;0.90;;;;;;;;;;5041829;28;20100;-68
2021/03/12 09:31:12;;;;;;;2.28;0.60;;;;;;;;;;5041679;28;20118;-69
2021/03/12 09:33:41;;;;;;;2.85;1.05;;;;;;;;;;5041079;28;20366;-68
2021/03/12 09:36:27;;;;;;;2.67;0.95;;;;;;;;;;5040303;28;20060;-68
2021/03/12 09:38:54;;;;;;;2.22;0.40;;;;;;;;;;5039919;28;20151;-68
2021/03/12 09:41:27;;;;;;;2.47;0.60;;;;;;;;;;5040862;28;20462;-69
2021/03/12 09:44:02;;;;;;;5.45;1.13;;;;;;;;;;5040502;28;20478;-68
2021/03/12 09:46:42;;;;;;;4.05;0.93;;;;;;;;;;5037828;28;20049;-68
2021/03/12 09:49:33;;;;;;;4.18;1.02;;;;;;;;;;5039562;28;20052;-68
2021/03/12 09:52:11;;;;;;;4.10;1.20;;;;;;;;;;5023951;28;20072;-69
2021/03/12 09:54:38;;;;;;;1.65;0.65;;;;;;;;;;5040947;28;20079;-69
2021/03/12 09:57:05;;;;;;;5.53;1.02;;;;;;;;;;5029094;28;20495;-68
2021/03/12 09:59:33;;;;;;;5.88;1.00;;;;;;;;;;5039437;28;20053;-68
2021/03/12 10:02:17;;;;;;;3.35;1.00;;;;;;;;;;5026696;28;20049;-68
2021/03/12 10:04:46;;;;;;;5.15;0.88;;;;;;;;;;5049345;28;20464;-68
2021/03/12 10:07:37;;;;;;;3.00;1.17;;;;;;;;;;5039478;28;20124;-68
2021/03/12 10:10:12;;;;;;;5.70;0.90;;;;;;;;;;5059390;28;20055;-69
2021/03/12 10:12:42;;;;;;;3.13;0.70;;;;;;;;;;5039840;28;20049;-69
2021/03/12 10:15:35;;;;;;;2.38;0.90;;;;;;;;;;5041296;28;20140;-67
2021/03/12 10:18:02;;;;;;;4.85;0.98;;;;;;;;;;5028704;28;20530;-69
2021/03/12 10:20:31;;;;;;;7.72;1.15;;;;;;;;;;5040045;28;20049;-68
2021/03/12 10:23:09;;;;;;;4.93;1.05;;;;;;;;;;5041467;28;20065;-69
2021/03/12 10:25:42;;;;;;;3.25;0.80;;;;;;;;;;5032907;28;20567;-73
2021/03/12 10:28:18;;;;;;;4.50;1.33;;;;;;;;;;5012909;28;20435;-69
2021/03/12 10:30:53;;;;;;;1.88;0.60;;;;;;;;;;5037925;28;20103;-70
2021/03/12 10:33:24;;;;;;;4.57;1.55;;;;;;;;;;5046217;28;20508;-72
2021/03/12 10:35:51;;;;;;;2.95;0.77;;;;;;;;;;5006517;28;20081;-73
2021/03/12 10:38:23;;;;;;;6.22;0.98;;;;;;;;;;5030619;28;20048;-73
2021/03/12 10:41:14;;;;;;;5.15;1.10;;;;;;;;;;5029127;28;20527;-70
2021/03/12 10:43:41;;;;;;;3.90;0.93;;;;;;;;;;5021517;28;20064;-71
2021/03/12 10:46:09;;;;;;;2.38;0.68;;;;;;;;;;5039192;28;20049;-71
2021/03/12 10:48:56;;;;;;;1.92;0.80;;;;;;;;;;5014861;28;20072;-72
2021/03/12 10:51:23;;;;;;;1.75;0.40;;;;;;;;;;5028526;28;20053;-71
2021/03/12 10:53:52;;;;;;;2.22;0.52;;;;;;;;;;5022353;28;20050;-70
2021/03/12 10:56:19;;;;;;;1.02;0.52;;;;;;;;;;5039013;28;20603;-70
2021/03/12 10:58:50;;;;;;;2.63;0.50;;;;;;;;;;5039852;28;20080;-70
2021/03/12 11:01:22;;;;;;;1.25;0.40;;;;;;;;;;5039524;28;20523;-70
2021/03/12 11:03:50;;;;;;;1.17;0.40;;;;;;;;;;5039189;28;20478;-70
2021/03/12 11:06:18;;;;;;;1.35;0.32;;;;;;;;;;5038506;28;20072;-70
2021/03/12 11:08:45;;;;;;;1.05;0.32;;;;;;;;;;5039766;28;20084;-69
2021/03/12 11:11:14;;;;;;;1.88;0.75;;;;;;;;;;5039531;28;20041;-69
2021/03/12 11:13:40;;;;;;;2.08;0.63;;;;;;;;;;5037230;28;20077;-69
2021/03/12 11:16:08;;;;;;;2.42;0.45;;;;;;;;;;5043285;28;20110;-68
2021/03/12 11:18:35;;;;;;;1.88;0.73;;;;;;;;;;5038599;28;20052;-69
2021/03/12 11:21:04;;;;;;;2.50;0.35;;;;;;;;;;5042110;28;20050;-71
2021/03/12 11:23:31;;;;;;;2.05;0.50;;;;;;;;;;5038621;28;20053;-68
2021/03/12 11:25:58;;;;;;;1.25;0.30;;;;;;;;;;5039988;28;20052;-68
2021/03/12 11:28:25;;;;;;;4.03;0.65;;;;;;;;;;5038643;28;20060;-69
2021/03/12 11:30:52;;;;;;;3.17;0.75;;;;;;;;;;5031593;28;20106;-68
2021/03/12 11:33:18;;;;;;;1.75;0.40;;;;;;;;;;5039660;28;20076;-70
2021/03/12 11:35:45;;;;;;;3.10;0.60;;;;;;;;;;5046045;28;20059;-68
2021/03/12 11:38:11;;;;;;;1.58;0.32;;;;;;;;;;5039252;28;20104;-67
2021/03/12 11:40:38;;;;;;;6.45;0.57;;;;;;;;;;5045444;28;20057;-67
2021/03/12 11:43:05;;;;;;;2.22;0.63;;;;;;;;;;5042986;28;20057;-68
2021/03/12 11:45:31;;;;;;;1.55;0.52;;;;;;;;;;5040240;28;20107;-70
2021/03/12 11:47:58;;;;;;;1.95;0.43;;;;;;;;;;5044380;28;20122;-69
2021/03/12 11:50:32;;;;;;;3.38;0.70;;;;;;;;;;5041648;28;20582;-69
2021/03/12 11:52:58;;;;;;;3.03;0.80;;;;;;;;;;5041890;28;20475;-68
2021/03/12 11:55:24;;;;;;;3.08;0.70;;;;;;;;;;5042016;28;20053;-68
2021/03/12 11:57:50;;;;;;;1.95;0.77;;;;;;;;;;5038836;28;20088;-73
2021/03/12 12:00:17;;;;;;;1.70;0.60;;;;;;;;;;5039466;28;20041;-69
2021/03/12 12:02:46;;;;;;;1.60;0.65;;;;;;;;;;5040726;28;20512;-72
2021/03/12 12:05:13;;;;;;;4.40;0.80;;;;;;;;;;5040974;28;20079;-69
2021/03/12 12:07:40;;;;;;;2.58;0.60;;;;;;;;;;5031622;28;20052;-70
2021/03/12 12:10:08;;;;;;;2.58;0.60;;;;;;;;;;5012418;28;20045;-72
2021/03/12 12:12:34;;;;;;;1.35;0.65;;;;;;;;;;5039240;28;20095;-69
2021/03/12 12:15:01;;;;;;;1.58;0.60;;;;;;;;;;5036787;28;20056;-71
2021/03/12 12:17:27;;;;;;;1.40;0.50;;;;;;;;;;5046235;28;20118;-72
2021/03/12 12:19:53;;;;;;;2.35;0.65;;;;;;;;;;5046941;28;20049;-69
2021/03/12 12:22:19;;;;;;;2.08;0.73;;;;;;;;;;5039392;28;20084;-68
2021/03/12 12:24:46;;;;;;;3.00;0.90;;;;;;;;;;5017411;28;20119;-70
2021/03/12 12:27:13;;;;;;;7.25;1.92;;;;;;;;;;5019743;28;20057;-71
2021/03/12 12:29:41;;;;;;;2.80;0.85;;;;;;;;;;5028957;28;20425;-70
2021/03/12 12:32:07;;;;;;;3.17;1.20;;;;;;;;;;5042339;28;20056;-69
2021/03/12 12:34:34;;;;;;;4.35;0.68;;;;;;;;;;5047777;28;20055;-70
2021/03/12 12:37:01;;;;;;;1.00;0.40;;;;;;;;;;5028779;28;20057;-69
2021/03/12 12:39:27;;;;;;;1.60;0.47;;;;;;;;;;5032345;28;20076;-69
2021/03/12 12:41:53;;;;;;;2.25;0.60;;;;;;;;;;5029846;28;20061;-74
2021/03/12 12:44:20;;;;;;;2.75;0.82;;;;;;;;;;5013338;28;20053;-71
2021/03/12 12:46:46;;;;;;;3.08;0.98;;;;;;;;;;5030961;28;20114;-71
2021/03/12 12:49:12;;;;;;;1.40;0.85;;;;;;;;;;5049401;28;20081;-71
2021/03/12 12:51:39;;;;;;;4.28;0.75;;;;;;;;;;5031878;28;20056;-72
2021/03/12 12:54:06;;;;;;;3.05;1.00;;;;;;;;;;5016455;28;20307;-72
2021/03/12 12:56:33;;;;;;;3.80;1.33;;;;;;;;;;5033186;28;20497;-76
2021/03/12 12:58:59;;;;;;;2.28;0.82;;;;;;;;;;5033196;28;20057;-72
2021/03/12 13:01:26;;;;;;;2.75;0.70;;;;;;;;;;5035752;28;20056;-71
2021/03/12 13:03:52;;;;;;;2.75;0.57;;;;;;;;;;5053057;28;20491;-70
2021/03/12 13:06:18;;;;;;;3.47;0.80;;;;;;;;;;5051846;28;20492;-73
2021/03/12 13:08:44;;;;;;;2.88;0.77;;;;;;;;;;5035484;28;20100;-73
2021/03/12 13:11:11;;;;;;;1.77;1.08;;;;;;;;;;5054817;28;20075;-79
2021/03/12 13:13:37;;;;;;;2.58;0.90;;;;;;;;;;5044489;28;20057;-74
2021/03/12 13:16:04;;;;;;;6.18;0.90;;;;;;;;;;5041583;28;21161;-73
2021/03/12 13:18:34;;;;;;;3.67;1.13;;;;;;;;;;5045177;28;20048;-72
2021/03/12 13:21:06;;;;;;;2.08;1.05;;;;;;;;;;5033160;28;20365;-73
2021/03/12 13:23:38;;;;;;;3.75;1.08;;;;;;;;;;5042006;28;20084;-73
2021/03/12 13:26:04;;;;;;;3.70;1.00;;;;;;;;;;5027159;28;20061;-74
2021/03/12 13:28:42;;;;;;;;;;;;;;;;;;;;;
2021/03/12 13:31:18;;;;;;;3.28;0.70;;;;;;;;;;5028986;28;20041;-75
2021/03/12 13:33:49;;;;;;;3.92;0.70;;;;;;;;;;5039787;28;20571;-73
2021/03/12 13:36:22;;;;;;;4.40;0.50;;;;;;;;;;5040603;28;20500;-75
2021/03/12 13:38:52;;;;;;;3.47;0.93;;;;;;;;;;5024848;28;20049;-73
2021/03/12 13:41:36;;;;;;;2.72;0.70;;;;;;;;;;5037608;28;20156;-72
2021/03/12 13:44:06;;;;;;;4.10;0.98;;;;;;;;;;5048063;28;20052;-72
2021/03/12 13:46:36;;;;;;;2.05;1.05;;;;;;;;;;5026329;28;20053;-72
2021/03/12 13:49:03;;;;;;;3.88;1.25;;;;;;;;;;5041344;28;20103;-70
2021/03/12 13:51:30;;;;;;;5.18;1.35;;;;;;;;;;5047398;28;20048;-72
2021/03/12 13:53:56;;;;;;;3.28;0.80;;;;;;;;;;5041141;28;20049;-71
2021/03/12 13:56:22;;;;;;;3.25;0.80;;;;;;;;;;5046755;28;20519;-72
2021/03/12 13:58:48;;;;;;;2.83;0.90;;;;;;;;;;5040427;28;20060;-71
2021/03/12 14:01:14;;;;;;;2.05;0.90;;;;;;;;;;5035242;28;20452;-70
2021/03/12 14:03:41;;;;;;;4.47;1.25;;;;;;;;;;5039728;28;20080;-70
2021/03/12 14:06:07;;;;;;;2.47;0.80;;;;;;;;;;5039963;28;20098;-71
2021/03/12 14:08:33;;;;;;;4.45;0.70;;;;;;;;;;5040501;28;20055;-72
2021/03/12 14:11:00;;;;;;;2.10;0.70;;;;;;;;;;5045123;28;20499;-71
2021/03/12 14:13:26;;;;;;;3.75;1.15;;;;;;;;;;5040146;28;20492;-70
2021/03/12 14:15:52;;;;;;;3.60;0.90;;;;;;;;;;5036560;28;20053;-70
2021/03/12 14:18:18;;;;;;;6.35;1.42;;;;;;;;;;5040358;28;20049;-71
2021/03/12 14:20:45;;;;;;;2.90;0.98;;;;;;;;;;5037763;28;20049;-70
2021/03/12 14:23:11;;;;;;;3.55;1.38;;;;;;;;;;5036513;28;20095;-70
2021/03/12 14:25:39;;;;;;;4.75;1.02;;;;;;;;;;5040139;28;20053;-72
2021/03/12 14:28:05;;;;;;;4.95;1.25;;;;;;;;;;5038501;28;20567;-68
2021/03/12 14:30:32;;;;;;;7.43;2.35;;;;;;;;;;5032784;28;20478;-69
2021/03/12 14:32:59;;;;;;;6.38;1.70;;;;;;;;;;5038528;28;20055;-68
2021/03/12 14:35:26;;;;;;;1.75;0.80;;;;;;;;;;5035543;28;20471;-69
2021/03/12 14:37:52;;;;;;;3.42;0.90;;;;;;;;;;5037357;28;20056;-68
2021/03/12 14:40:19;;;;;;;3.97;1.70;;;;;;;;;;5038384;28;20037;-68
2021/03/12 14:42:45;;;;;;;1.92;0.75;;;;;;;;;;5033903;28;20524;-68
2021/03/12 14:45:12;;;;;;;5.32;1.40;;;;;;;;;;5041301;28;20102;-69
2021/03/12 14:47:39;;;;;;;4.07;1.65;;;;;;;;;;5035842;28;20060;-68
2021/03/12 14:50:08;;;;;;;4.07;1.00;;;;;;;;;;5040461;28;20132;-69
2021/03/12 14:52:52;;;;;;;5.38;0.95;;;;;;;;;;5035453;28;20049;-70